createdAt,value
2019-02-08T00:02:13.848Z,40.63
2019-02-08T00:04:45.498Z,39.07
2019-02-08T00:07:21.958Z,38.73
2019-02-08T00:09:53.560Z,38.73
2019-02-08T00:12:26.700Z,38.67
2019-02-08T00:14:58.540Z,38.00
2019-02-08T00:17:30.685Z,36.97
2019-02-08T00:20:03.474Z,38.23
2019-02-08T00:22:36.318Z,37.43
2019-02-08T00:25:12.400Z,36.83
2019-02-08T00:27:43.953Z,38.60
2019-02-08T00:30:20.458Z,37.87
2019-02-08T00:32:52.761Z,37.93
2019-02-08T00:35:25.025Z,36.40
2019-02-08T00:37:56.579Z,35.33
2019-02-08T00:40:28.798Z,36.67
2019-02-08T00:43:00.828Z,35.07
2019-02-08T00:45:32.388Z,34.97
2019-02-08T00:48:03.822Z,35.50
2019-02-08T00:50:35.192Z,34.20
2019-02-08T00:53:06.639Z,35.00
2019-02-08T00:55:39.959Z,34.20
2019-02-08T00:58:11.704Z,34.27
2019-02-08T01:00:43.737Z,33.33
2019-02-08T01:03:16.949Z,33.87
2019-02-08T01:05:48.863Z,33.17
2019-02-08T01:08:20.634Z,33.80
2019-02-08T01:10:55.270Z,33.67
2019-02-08T01:13:28.484Z,32.07
2019-02-08T01:15:59.718Z,30.73
2019-02-08T01:18:33.156Z,34.43
2019-02-08T01:21:05.104Z,31.33
2019-02-08T01:23:41.004Z,33.27
2019-02-08T01:26:09.766Z,32.10
2019-02-08T01:28:41.879Z,31.47
2019-02-08T01:31:13.339Z,30.80
2019-02-08T01:33:45.171Z,30.43
2019-02-08T01:36:16.904Z,30.03
2019-02-08T01:38:48.418Z,28.60
2019-02-08T01:41:19.931Z,29.10
2019-02-08T01:43:58.279Z,29.13
2019-02-08T01:46:29.780Z,28.67
2019-02-08T01:49:01.250Z,28.27
2019-02-08T01:51:32.854Z,28.10
2019-02-08T01:54:04.529Z,27.77
2019-02-08T01:56:37.539Z,26.40
2019-02-08T01:59:09.539Z,26.50
2019-02-08T02:01:41.296Z,26.37
2019-02-08T02:04:14.051Z,25.73
2019-02-08T02:06:45.781Z,25.30
2019-02-08T02:09:17.318Z,24.77
2019-02-08T02:11:49.044Z,23.73
2019-02-08T02:14:22.040Z,24.93
2019-02-08T02:16:57.681Z,25.83
2019-02-08T02:19:29.546Z,24.33
2019-02-08T02:22:01.005Z,24.80
2019-02-08T02:24:34.291Z,25.73
2019-02-08T02:27:05.952Z,22.70
2019-02-08T02:29:38.175Z,22.53
2019-02-08T02:32:11.439Z,22.77
2019-02-08T02:34:43.144Z,22.10
2019-02-08T02:37:15.745Z,23.87
2019-02-08T02:39:51.097Z,22.37
2019-02-08T02:42:23.775Z,21.47
2019-02-08T02:44:55.339Z,21.47
2019-02-08T02:47:28.128Z,20.20
2019-02-08T02:50:02.003Z,20.67
2019-02-08T02:52:34.100Z,20.23
2019-02-08T02:55:06.566Z,20.40
2019-02-08T02:57:38.250Z,19.57
2019-02-08T03:00:23.163Z,20.00
2019-02-08T03:02:55.082Z,20.10
2019-02-08T03:05:26.849Z,20.53
2019-02-08T03:07:58.468Z,19.87
2019-02-08T03:10:30.580Z,18.73
2019-02-08T03:13:01.985Z,20.57
2019-02-08T03:15:34.589Z,19.43
2019-02-08T03:18:07.443Z,20.17
2019-02-08T03:20:39.329Z,20.17
2019-02-08T03:23:11.650Z,19.43
2019-02-08T03:25:43.390Z,19.13
2019-02-08T03:28:15.008Z,20.33
2019-02-08T03:30:51.806Z,19.23
2019-02-08T03:33:24.049Z,19.90
2019-02-08T03:35:55.386Z,19.03
2019-02-08T03:38:27.248Z,19.00
2019-02-08T03:41:00.405Z,20.37
2019-02-08T03:43:31.767Z,18.20
2019-02-08T03:46:05.457Z,19.40
2019-02-08T03:48:37.080Z,19.10
2019-02-08T03:51:08.820Z,18.87
2019-02-08T03:53:40.385Z,18.00
2019-02-08T03:56:13.349Z,18.67
2019-02-08T03:58:44.911Z,18.50
2019-02-08T04:01:19.447Z,18.10
2019-02-08T04:03:51.531Z,17.27
2019-02-08T04:06:23.476Z,18.37
2019-02-08T04:08:54.868Z,17.40
2019-02-08T04:11:26.780Z,18.27
2019-02-08T04:13:58.102Z,17.37
2019-02-08T04:16:29.609Z,18.40
2019-02-08T04:19:01.293Z,17.27
2019-02-08T04:21:34.252Z,18.43
2019-02-08T04:24:05.673Z,17.50
2019-02-08T04:26:38.601Z,17.80
2019-02-08T04:29:12.247Z,17.80
2019-02-08T04:31:44.053Z,17.97
2019-02-08T04:34:15.467Z,19.37
2019-02-08T04:36:46.827Z,17.77
2019-02-08T04:39:19.155Z,18.90
2019-02-08T04:41:50.832Z,17.37
2019-02-08T04:44:23.526Z,18.53
2019-02-08T04:46:55.158Z,17.57
2019-02-08T04:49:26.610Z,18.67
2019-02-08T04:52:00.191Z,18.77
2019-02-08T04:54:38.280Z,18.47
2019-02-08T04:57:04.986Z,18.90
2019-02-08T04:59:36.636Z,19.40
2019-02-08T05:02:08.006Z,19.03
2019-02-08T05:04:39.803Z,18.67
2019-02-08T05:07:11.479Z,18.37
2019-02-08T05:09:42.826Z,18.73
2019-02-08T05:12:14.290Z,19.00
2019-02-08T05:14:45.761Z,20.03
2019-02-08T05:17:17.439Z,19.00
2019-02-08T05:19:48.763Z,20.27
2019-02-08T05:22:25.604Z,19.47
2019-02-08T05:24:58.860Z,18.30
2019-02-08T05:27:30.378Z,19.27
2019-02-08T05:30:02.033Z,19.53
2019-02-08T05:32:34.026Z,19.63
2019-02-08T05:35:06.126Z,18.20
2019-02-08T05:37:37.714Z,19.87
2019-02-08T05:40:10.977Z,18.37
2019-02-08T05:42:43.083Z,18.77
2019-02-08T05:45:15.990Z,19.93
2019-02-08T05:47:47.491Z,18.47
2019-02-08T05:50:22.681Z,19.77
2019-02-08T05:52:55.108Z,15.90
2019-02-08T05:55:29.090Z,15.33
2019-02-08T05:58:00.977Z,19.00
2019-02-08T06:00:48.002Z,19.97
2019-02-08T06:03:19.673Z,20.60
2019-02-08T06:05:51.648Z,18.97
2019-02-08T06:08:23.353Z,20.70
2019-02-08T06:10:55.097Z,19.60
2019-02-08T06:13:30.094Z,20.13
2019-02-08T06:16:01.866Z,20.20
2019-02-08T06:18:33.249Z,19.77
2019-02-08T06:21:06.536Z,19.53
2019-02-08T06:23:38.369Z,19.63
2019-02-08T06:26:13.439Z,21.37
2019-02-08T06:28:47.003Z,19.73
2019-02-08T06:31:18.427Z,20.40
2019-02-08T06:33:55.991Z,20.10
2019-02-08T06:36:27.503Z,20.97
2019-02-08T06:38:59.295Z,19.33
2019-02-08T06:41:31.316Z,19.53
2019-02-08T06:44:04.740Z,18.20
2019-02-08T06:46:36.317Z,19.83
2019-02-08T06:49:08.111Z,21.20
2019-02-08T06:51:41.805Z,19.87
2019-02-08T06:54:13.354Z,20.97
2019-02-08T06:57:10.605Z,19.50
2019-02-08T06:59:54.357Z,24.70
2019-02-08T07:03:10.505Z,21.77
2019-02-08T07:05:59.547Z,20.20
2019-02-08T07:08:39.210Z,19.60
2019-02-08T07:11:35.683Z,20.60
2019-02-08T07:14:35.829Z,20.63
2019-02-08T07:17:21.036Z,19.40
2019-02-08T07:20:06.882Z,20.40
2019-02-08T07:23:08.824Z,21.13
2019-02-08T07:26:05.080Z,20.80
2019-02-08T07:29:01.718Z,20.43
2019-02-08T07:31:52.358Z,22.47
2019-02-08T07:34:32.808Z,21.43
2019-02-08T07:37:14.371Z,22.73
2019-02-08T07:40:13.884Z,22.03
2019-02-08T07:43:04.597Z,22.70
2019-02-08T07:45:50.375Z,20.60
2019-02-08T07:48:33.729Z,23.07
2019-02-08T07:51:39.842Z,19.53
2019-02-08T07:54:30.697Z,21.83
2019-02-08T07:57:12.755Z,20.53
2019-02-08T08:00:09.853Z,20.10
2019-02-08T08:02:54.307Z,19.23
2019-02-08T08:05:35.391Z,19.00
2019-02-08T08:08:26.118Z,18.73
2019-02-08T08:11:31.734Z,18.73
2019-02-08T08:14:21.346Z,18.63
2019-02-08T08:17:31.434Z,19.03
2019-02-08T08:20:21.481Z,16.70
2019-02-08T08:23:10.989Z,17.60
2019-02-08T08:26:03.055Z,17.50
2019-02-08T08:29:01.127Z,17.50
2019-02-08T08:31:50.603Z,18.03
2019-02-08T08:34:33.861Z,17.30
2019-02-08T08:37:36.410Z,17.93
2019-02-08T08:40:45.984Z,16.27
2019-02-08T08:43:37.183Z,16.70
2019-02-08T08:46:35.931Z,17.23
2019-02-08T08:49:35.333Z,16.40
2019-02-08T08:52:42.094Z,15.60
2019-02-08T08:56:00.290Z,15.93
2019-02-08T08:59:22.018Z,16.20
2019-02-08T09:02:47.632Z,15.30
2019-02-08T09:06:08.054Z,14.07
2019-02-08T09:09:21.732Z,14.63
2019-02-08T09:12:23.765Z,14.53
2019-02-08T09:15:48.347Z,15.50
2019-02-08T09:19:04.552Z,16.13
2019-02-08T09:22:09.527Z,15.70
2019-02-08T09:25:15.148Z,15.47
2019-02-08T09:28:20.894Z,16.27
2019-02-08T09:31:30.441Z,15.27
2019-02-08T09:34:42.984Z,15.13
2019-02-08T09:37:49.402Z,15.53
2019-02-08T09:41:17.393Z,15.50
2019-02-08T09:44:22.186Z,15.33
2019-02-08T09:47:30.241Z,15.23
2019-02-08T09:50:35.173Z,15.83
2019-02-08T09:53:38.037Z,16.10
2019-02-08T09:56:47.530Z,16.47
2019-02-08T09:59:39.084Z,16.03
2019-02-08T10:02:37.646Z,16.37
2019-02-08T10:05:48.453Z,16.93
2019-02-08T10:09:07.981Z,16.70
2019-02-08T10:12:14.322Z,15.77
2019-02-08T10:15:24.938Z,17.33
2019-02-08T10:18:48.736Z,16.63
2019-02-08T10:22:09.664Z,16.07
2019-02-08T10:25:30.381Z,15.90
2019-02-08T10:28:58.357Z,15.80
2019-02-08T10:31:53.547Z,15.13
2019-02-08T10:34:53.316Z,15.57
2019-02-08T10:38:00.596Z,15.27
2019-02-08T10:41:21.556Z,16.47
2019-02-08T10:44:21.665Z,15.40
2019-02-08T10:47:52.192Z,16.07
2019-02-08T10:50:52.748Z,17.23
2019-02-08T10:54:20.707Z,16.83
2019-02-08T10:57:36.003Z,17.43
2019-02-08T11:00:53.564Z,17.53
2019-02-08T11:04:05.568Z,17.53
2019-02-08T11:07:27.763Z,17.30
2019-02-08T11:10:45.237Z,18.93
2019-02-08T11:13:53.810Z,18.13
2019-02-08T11:17:06.685Z,16.93
2019-02-08T11:19:36.624Z,16.33
2019-02-08T11:22:08.664Z,16.83
2019-02-08T11:24:42.749Z,16.77
2019-02-08T11:27:14.350Z,16.87
2019-02-08T11:29:46.006Z,17.50
2019-02-08T11:32:17.743Z,18.20
2019-02-08T11:34:50.055Z,18.97
2019-02-08T11:37:21.927Z,18.40
2019-02-08T11:39:53.209Z,17.63
2019-02-08T11:42:24.670Z,17.50
2019-02-08T11:44:56.641Z,19.00
2019-02-08T11:47:27.987Z,17.10
2019-02-08T11:49:59.426Z,18.60
2019-02-08T11:52:36.110Z,17.73
2019-02-08T11:55:12.212Z,18.07
2019-02-08T11:57:45.182Z,16.87
2019-02-08T12:00:28.922Z,17.77
2019-02-08T12:03:00.486Z,16.73
2019-02-08T12:05:32.028Z,17.47
2019-02-08T12:08:04.045Z,16.40
2019-02-08T12:10:35.821Z,17.40
2019-02-08T12:13:09.276Z,15.80
2019-02-08T12:15:40.708Z,17.17
2019-02-08T12:18:12.927Z,16.67
2019-02-08T12:20:44.835Z,15.90
2019-02-08T12:23:17.083Z,16.23
2019-02-08T12:25:48.932Z,15.73
2019-02-08T12:28:22.294Z,14.57
2019-02-08T12:30:55.226Z,15.90
2019-02-08T12:33:27.070Z,16.47
2019-02-08T12:36:00.016Z,15.80
2019-02-08T12:38:31.693Z,15.63
2019-02-08T12:41:09.636Z,15.57
2019-02-08T12:43:36.629Z,16.27
2019-02-08T12:46:08.588Z,14.97
2019-02-08T12:48:40.263Z,16.40
2019-02-08T12:51:11.790Z,15.00
2019-02-08T12:53:43.529Z,15.20
2019-02-08T12:56:15.276Z,16.37
2019-02-08T12:58:47.292Z,15.73
2019-02-08T13:01:19.019Z,14.77
2019-02-08T13:03:50.765Z,15.43
2019-02-08T13:06:26.744Z,15.30
2019-02-08T13:08:58.289Z,15.50
2019-02-08T13:11:30.337Z,14.73
2019-02-08T13:14:03.066Z,14.40
2019-02-08T13:16:36.704Z,14.47
2019-02-08T13:19:09.927Z,14.60
2019-02-08T13:21:43.245Z,14.00
2019-02-08T13:24:15.125Z,14.03
2019-02-08T13:26:52.773Z,13.23
2019-02-08T13:29:20.531Z,13.57
2019-02-08T13:31:53.656Z,12.57
2019-02-08T13:34:25.629Z,12.50
2019-02-08T13:36:59.006Z,13.27
2019-02-08T13:39:30.629Z,12.80
2019-02-08T13:42:04.111Z,13.27
2019-02-08T13:44:36.315Z,12.90
2019-02-08T13:47:07.706Z,13.30
2019-02-08T13:49:40.652Z,13.30
2019-02-08T13:52:15.732Z,11.67
2019-02-08T13:54:47.469Z,12.83
2019-02-08T13:57:18.885Z,12.00
2019-02-08T13:59:50.634Z,12.70
2019-02-08T14:02:22.654Z,11.87
2019-02-08T14:04:54.112Z,12.17
2019-02-08T14:07:25.437Z,12.00
2019-02-08T14:09:56.971Z,14.00
2019-02-08T14:12:28.815Z,12.77
2019-02-08T14:15:01.836Z,12.77
2019-02-08T14:17:33.587Z,11.10
2019-02-08T14:20:07.048Z,11.47
2019-02-08T14:22:38.927Z,11.90
2019-02-08T14:25:12.224Z,11.33
2019-02-08T14:27:44.471Z,11.63
2019-02-08T14:30:28.591Z,11.00
2019-02-08T14:33:00.555Z,12.30
2019-02-08T14:35:32.205Z,11.93
2019-02-08T14:38:05.530Z,12.63
2019-02-08T14:40:37.003Z,11.87
2019-02-08T14:43:11.046Z,12.17
2019-02-08T14:45:42.867Z,11.80
2019-02-08T14:48:18.502Z,11.90
2019-02-08T14:50:51.087Z,13.53
2019-02-08T14:53:25.080Z,13.63
2019-02-08T14:55:56.734Z,13.27
2019-02-08T14:58:28.531Z,13.37
2019-02-08T15:01:03.158Z,14.33
2019-02-08T15:03:36.376Z,13.97
2019-02-08T15:06:08.008Z,14.57
2019-02-08T15:08:39.723Z,13.97
2019-02-08T15:11:11.708Z,14.37
2019-02-08T15:13:43.499Z,13.70
2019-02-08T15:16:15.370Z,14.07
2019-02-08T15:18:47.125Z,14.37
2019-02-08T15:21:18.676Z,14.03
2019-02-08T15:23:51.216Z,14.70
2019-02-08T15:26:23.244Z,14.93
2019-02-08T15:28:56.832Z,14.80
2019-02-08T15:31:28.472Z,14.63
2019-02-08T15:33:59.966Z,14.40
2019-02-08T15:36:31.338Z,14.70
2019-02-08T15:39:03.181Z,13.80
2019-02-08T15:41:35.106Z,15.30
2019-02-08T15:44:07.883Z,14.73
2019-02-08T15:46:39.739Z,16.63
2019-02-08T15:49:11.880Z,16.07
2019-02-08T15:51:44.038Z,15.73
2019-02-08T15:54:15.572Z,14.93
2019-02-08T15:56:47.118Z,15.30
2019-02-08T15:59:21.509Z,14.17
2019-02-08T16:01:53.173Z,14.60
2019-02-08T16:04:24.935Z,16.60
2019-02-08T16:06:59.238Z,16.00
2019-02-08T16:09:32.887Z,14.53
2019-02-08T16:12:05.173Z,14.97
2019-02-08T16:14:36.694Z,15.13
2019-02-08T16:17:09.585Z,14.63
2019-02-08T16:19:41.264Z,17.20
2019-02-08T16:22:13.288Z,15.50
2019-02-08T16:24:45.439Z,15.33
2019-02-08T16:27:17.149Z,15.80
2019-02-08T16:29:48.581Z,16.60
2019-02-08T16:32:20.741Z,16.23
2019-02-08T16:34:53.085Z,15.87
2019-02-08T16:37:25.183Z,16.03
2019-02-08T16:39:58.288Z,17.03
2019-02-08T16:42:30.926Z,16.47
2019-02-08T16:45:02.588Z,16.27
2019-02-08T16:47:36.089Z,17.33
2019-02-08T16:50:10.052Z,17.93
2019-02-08T16:52:41.873Z,16.77
2019-02-08T16:55:13.898Z,15.30
2019-02-08T16:57:47.768Z,16.20
2019-02-08T17:00:38.575Z,16.33
2019-02-08T17:03:12.438Z,16.87
2019-02-08T17:05:44.128Z,16.47
2019-02-08T17:08:15.652Z,16.80
2019-02-08T17:10:47.659Z,15.83
2019-02-08T17:13:26.051Z,16.43
2019-02-08T17:15:59.269Z,15.90
2019-02-08T17:18:30.762Z,16.07
2019-02-08T17:21:02.467Z,16.23
2019-02-08T17:23:34.515Z,16.10
2019-02-08T17:26:06.391Z,15.43
2019-02-08T17:28:39.725Z,15.93
2019-02-08T17:31:11.915Z,16.80
2019-02-08T17:33:43.360Z,16.40
2019-02-08T17:36:14.988Z,16.00
2019-02-08T17:38:48.104Z,16.70
2019-02-08T17:41:19.622Z,16.57
2019-02-08T17:43:56.861Z,15.73
2019-02-08T17:46:30.394Z,14.80
2019-02-08T17:49:01.808Z,16.17
2019-02-08T17:51:33.546Z,15.63
2019-02-08T17:54:05.467Z,15.97
2019-02-08T17:56:38.703Z,15.60
2019-02-08T17:59:12.407Z,15.20
2019-02-08T18:01:44.014Z,15.40
2019-02-08T18:04:15.829Z,16.17
2019-02-08T18:06:49.462Z,14.10
2019-02-08T18:09:21.401Z,14.23
2019-02-08T18:11:53.013Z,15.07
2019-02-08T18:14:28.002Z,15.00
2019-02-08T18:16:59.994Z,14.77
2019-02-08T18:19:33.115Z,15.43
2019-02-08T18:22:07.415Z,14.67
2019-02-08T18:24:39.199Z,13.27
2019-02-08T18:27:10.881Z,15.07
2019-02-08T18:29:42.721Z,14.90
2019-02-08T18:32:16.885Z,13.37
2019-02-08T18:34:48.466Z,14.47
2019-02-08T18:37:20.121Z,15.13
2019-02-08T18:39:52.319Z,13.67
2019-02-08T18:42:25.900Z,13.73
2019-02-08T18:44:57.302Z,14.17
2019-02-08T18:47:31.337Z,14.43
2019-02-08T18:50:06.883Z,13.37
2019-02-08T18:52:38.387Z,14.23
2019-02-08T18:55:11.826Z,13.60
2019-02-08T18:57:45.357Z,13.20
2019-02-08T19:00:23.341Z,14.43
2019-02-08T19:02:57.717Z,14.53
2019-02-08T19:05:29.624Z,14.63
2019-02-08T19:08:01.361Z,14.80
2019-02-08T19:10:33.039Z,15.37
2019-02-08T19:13:05.151Z,14.47
2019-02-08T19:15:37.192Z,14.57
2019-02-08T19:18:10.396Z,15.73
2019-02-08T19:20:42.003Z,16.03
2019-02-08T19:23:16.970Z,16.40
2019-02-08T19:25:48.601Z,15.80
2019-02-08T19:28:26.459Z,15.07
2019-02-08T19:30:55.393Z,16.70
2019-02-08T19:33:29.024Z,15.97
2019-02-08T19:36:01.074Z,15.87
2019-02-08T19:38:32.517Z,15.97
2019-02-08T19:41:05.545Z,16.50
2019-02-08T19:43:38.041Z,16.40
2019-02-08T19:46:10.538Z,17.03
2019-02-08T19:48:42.298Z,14.97
2019-02-08T19:51:14.110Z,16.30
2019-02-08T19:53:45.951Z,15.97
2019-02-08T19:56:17.375Z,17.47
2019-02-08T19:58:49.103Z,17.57
2019-02-08T20:01:20.681Z,17.37
2019-02-08T20:03:52.188Z,16.70
2019-02-08T20:06:23.921Z,17.43
2019-02-08T20:08:55.534Z,17.40
2019-02-08T20:11:27.350Z,18.40
2019-02-08T20:13:59.250Z,17.30
2019-02-08T20:16:32.442Z,17.43
2019-02-08T20:19:03.865Z,18.07
2019-02-08T20:21:35.566Z,18.23
2019-02-08T20:24:07.345Z,17.30
2019-02-08T20:26:40.791Z,17.37
2019-02-08T20:29:13.000Z,16.87
2019-02-08T20:31:44.641Z,18.60
2019-02-08T20:34:16.386Z,19.40
2019-02-08T20:36:48.026Z,18.77
2019-02-08T20:39:20.291Z,19.97
2019-02-08T20:41:57.681Z,17.73
2019-02-08T20:44:29.609Z,17.07
2019-02-08T20:47:01.483Z,18.90
2019-02-08T20:49:33.036Z,17.67
2019-02-08T20:52:05.854Z,18.33
2019-02-08T20:54:37.709Z,18.30
2019-02-08T20:57:09.730Z,18.80
2019-02-08T20:59:43.213Z,19.37
2019-02-08T21:02:14.688Z,18.43
2019-02-08T21:04:46.231Z,18.77
2019-02-08T21:07:17.927Z,18.40
2019-02-08T21:09:49.859Z,18.53
2019-02-08T21:12:21.445Z,18.40
2019-02-08T21:14:52.946Z,18.47
2019-02-08T21:17:24.907Z,17.97
2019-02-08T21:19:56.399Z,18.23
2019-02-08T21:22:30.544Z,17.47
2019-02-08T21:25:03.637Z,18.70
2019-02-08T21:27:35.857Z,17.73
2019-02-08T21:30:09.582Z,18.73
2019-02-08T21:32:42.403Z,16.97
2019-02-08T21:35:14.674Z,17.93
2019-02-08T21:37:46.775Z,17.37
2019-02-08T21:40:22.373Z,18.40
2019-02-08T21:42:57.393Z,17.70
2019-02-08T21:45:31.111Z,17.60
2019-02-08T21:48:02.938Z,18.17
2019-02-08T21:50:34.824Z,18.10
2019-02-08T21:53:08.691Z,19.20
2019-02-08T21:55:40.025Z,17.63
2019-02-08T21:58:13.245Z,18.33
2019-02-08T22:00:45.191Z,19.03
2019-02-08T22:03:17.224Z,18.50
2019-02-08T22:06:10.564Z,17.70
2019-02-08T22:08:45.225Z,18.27
2019-02-08T22:11:21.753Z,18.87
2019-02-08T22:13:54.988Z,18.70
2019-02-08T22:16:26.692Z,17.57
2019-02-08T22:18:58.119Z,19.77
2019-02-08T22:21:31.263Z,21.27
2019-02-08T22:24:02.979Z,19.50
2019-02-08T22:26:34.451Z,19.83
2019-02-08T22:29:13.726Z,19.13
2019-02-08T22:31:40.742Z,20.10
2019-02-08T22:34:12.578Z,18.37
2019-02-08T22:36:44.431Z,19.73
2019-02-08T22:39:17.508Z,19.30
2019-02-08T22:41:49.314Z,20.43
2019-02-08T22:44:21.531Z,19.53
2019-02-08T22:46:54.535Z,20.30
2019-02-08T22:49:25.990Z,19.30
2019-02-08T22:51:57.768Z,20.07
2019-02-08T22:54:30.333Z,18.40
2019-02-08T22:57:01.927Z,18.70
2019-02-08T22:59:33.530Z,18.50
2019-02-08T23:02:07.337Z,17.87
2019-02-08T23:04:40.530Z,18.60
2019-02-08T23:07:13.560Z,18.70
2019-02-08T23:09:45.339Z,17.33
2019-02-08T23:12:17.457Z,17.40
2019-02-08T23:14:48.966Z,18.67
2019-02-08T23:17:20.360Z,18.83
2019-02-08T23:19:51.954Z,19.17
2019-02-08T23:22:24.385Z,19.53
2019-02-08T23:24:56.339Z,18.43
2019-02-08T23:27:28.414Z,18.43
2019-02-08T23:30:02.696Z,18.73
2019-02-08T23:32:34.645Z,18.57
2019-02-08T23:35:07.592Z,19.60
2019-02-08T23:37:41.166Z,23.63
2019-02-08T23:40:13.925Z,19.57
2019-02-08T23:42:45.757Z,23.93
2019-02-08T23:45:17.686Z,24.53
2019-02-08T23:47:49.414Z,24.90
2019-02-08T23:50:22.116Z,25.73
2019-02-08T23:52:54.301Z,27.03
2019-02-08T23:55:25.571Z,24.70
2019-02-08T23:57:57.707Z,24.87
